createdAt,value
2022-11-15T00:00:16.721Z,44.91
2022-11-15T00:01:16.801Z,44.87
2022-11-15T00:02:16.962Z,44.87
2022-11-15T00:03:16.967Z,44.87
2022-11-15T00:04:17.068Z,44.87
2022-11-15T00:05:23.129Z,44.87
2022-11-15T00:06:17.221Z,44.88
2022-11-15T00:07:40.487Z,44.89
2022-11-15T00:08:17.582Z,44.92
2022-11-15T00:09:17.507Z,44.91
2022-11-15T00:10:17.579Z,44.87
2022-11-15T00:11:17.664Z,44.84
2022-11-15T00:12:17.735Z,44.86
2022-11-15T00:13:17.943Z,44.86
2022-11-15T00:14:17.885Z,44.86
2022-11-15T00:15:17.959Z,44.85
2022-11-15T00:16:18.064Z,44.87
2022-11-15T00:17:18.136Z,44.87
2022-11-15T00:18:18.224Z,44.88
2022-11-15T00:19:18.328Z,44.87
2022-11-15T00:20:18.413Z,44.87
2022-11-15T00:21:18.486Z,44.86
2022-11-15T00:22:18.574Z,44.83
2022-11-15T00:23:18.658Z,44.85
2022-11-15T00:24:18.792Z,44.85
2022-11-15T00:25:18.850Z,44.88
2022-11-15T00:26:18.937Z,44.85
2022-11-15T00:27:19.010Z,44.85
2022-11-15T00:28:19.082Z,44.85
2022-11-15T00:29:19.189Z,44.85
2022-11-15T00:30:19.381Z,44.86
2022-11-15T00:31:19.338Z,44.85
2022-11-15T00:32:19.423Z,44.88
2022-11-15T00:33:19.516Z,44.83
2022-11-15T00:34:19.605Z,44.85
2022-11-15T00:35:19.711Z,44.85
2022-11-15T00:36:25.758Z,44.82
2022-11-15T00:37:19.878Z,44.87
2022-11-15T00:38:19.968Z,44.88
2022-11-15T00:39:20.054Z,44.88
2022-11-15T00:40:20.129Z,44.88
2022-11-15T00:41:20.220Z,44.86
2022-11-15T00:42:20.306Z,44.85
2022-11-15T00:43:20.388Z,44.86
2022-11-15T00:44:20.465Z,44.84
2022-11-15T00:45:20.535Z,44.86
2022-11-15T00:46:20.642Z,44.84
2022-11-15T00:47:20.691Z,44.88
2022-11-15T00:48:20.768Z,44.90
2022-11-15T00:49:20.833Z,44.88
2022-11-15T00:50:20.901Z,44.90
2022-11-15T00:51:20.975Z,44.87
2022-11-15T00:52:21.071Z,44.86
2022-11-15T00:53:21.112Z,44.86
2022-11-15T00:54:21.194Z,44.87
2022-11-15T00:55:21.287Z,44.86
2022-11-15T00:56:21.378Z,44.84
2022-11-15T00:57:21.584Z,44.84
2022-11-15T00:58:21.542Z,44.82
2022-11-15T00:59:21.615Z,44.87
2022-11-15T01:00:21.698Z,44.88
2022-11-15T01:01:21.855Z,44.86
2022-11-15T01:02:21.887Z,44.85
2022-11-15T01:03:22.097Z,44.82
2022-11-15T01:04:22.042Z,44.84
2022-11-15T01:05:22.121Z,44.84
2022-11-15T01:06:22.205Z,44.83
2022-11-15T01:07:28.305Z,44.85
2022-11-15T01:08:22.361Z,44.90
2022-11-15T01:09:22.473Z,44.91
2022-11-15T01:10:22.562Z,44.89
2022-11-15T01:11:22.604Z,44.86
2022-11-15T01:12:22.704Z,44.85
2022-11-15T01:13:22.804Z,44.83
2022-11-15T01:14:25.337Z,44.85
2022-11-15T01:15:22.972Z,44.86
2022-11-15T01:16:23.036Z,44.85
2022-11-15T01:17:23.117Z,44.83
2022-11-15T01:18:23.199Z,44.82
2022-11-15T01:19:23.283Z,44.86
2022-11-15T01:20:23.364Z,44.87
2022-11-15T01:21:23.534Z,44.83
2022-11-15T01:22:23.494Z,44.85
2022-11-15T01:23:23.599Z,44.83
2022-11-15T01:24:23.689Z,44.84
2022-11-15T01:25:23.764Z,44.86
2022-11-15T01:26:23.847Z,44.84
2022-11-15T01:27:24.052Z,44.86
2022-11-15T01:28:24.022Z,44.88
2022-11-15T01:29:24.111Z,44.90
2022-11-15T01:30:24.195Z,44.83
2022-11-15T01:31:24.274Z,44.82
2022-11-15T01:32:24.352Z,44.82
2022-11-15T01:33:24.546Z,44.88
2022-11-15T01:34:24.514Z,44.84
2022-11-15T01:35:24.598Z,44.85
2022-11-15T01:36:24.683Z,44.85
2022-11-15T01:37:24.763Z,44.86
2022-11-15T01:38:30.868Z,44.83
2022-11-15T01:39:24.914Z,44.88
2022-11-15T01:40:24.986Z,44.85
2022-11-15T01:41:25.069Z,44.86
2022-11-15T01:42:25.146Z,44.86
2022-11-15T01:43:25.233Z,44.83
2022-11-15T01:44:25.403Z,44.85
2022-11-15T01:45:25.379Z,44.84
2022-11-15T01:46:25.463Z,44.85
2022-11-15T01:47:25.547Z,44.84
2022-11-15T01:48:25.624Z,44.82
2022-11-15T01:49:25.842Z,44.84
2022-11-15T01:50:25.791Z,44.86
2022-11-15T01:51:25.871Z,44.83
2022-11-15T01:52:25.962Z,44.85
2022-11-15T01:53:26.052Z,44.85
2022-11-15T01:54:26.137Z,44.79
2022-11-15T01:55:26.255Z,44.79
2022-11-15T01:56:26.302Z,44.84
2022-11-15T01:57:26.393Z,44.79
2022-11-15T01:58:26.475Z,44.81
2022-11-15T01:59:26.551Z,44.79
2022-11-15T02:00:26.644Z,44.76
2022-11-15T02:01:26.735Z,44.80
2022-11-15T02:02:26.798Z,44.82
2022-11-15T02:03:26.885Z,44.82
2022-11-15T02:04:26.986Z,44.84
2022-11-15T02:05:27.089Z,44.86
2022-11-15T02:06:27.253Z,44.81
2022-11-15T02:07:27.269Z,44.78
2022-11-15T02:08:27.294Z,44.79
2022-11-15T02:09:33.358Z,44.82
2022-11-15T02:10:27.475Z,44.83
2022-11-15T02:11:27.595Z,44.82
2022-11-15T02:12:27.613Z,44.81
2022-11-15T02:13:27.696Z,44.81
2022-11-15T02:14:27.762Z,44.81
2022-11-15T02:15:27.856Z,44.79
2022-11-15T02:16:27.938Z,44.80
2022-11-15T02:17:28.034Z,44.79
2022-11-15T02:18:28.097Z,44.79
2022-11-15T02:19:28.190Z,44.83
2022-11-15T02:20:28.278Z,44.83
2022-11-15T02:21:28.348Z,44.78
2022-11-15T02:22:28.567Z,44.76
2022-11-15T02:23:28.689Z,44.80
2022-11-15T02:24:28.596Z,44.79
2022-11-15T02:25:28.705Z,44.82
2022-11-15T02:26:28.753Z,44.83
2022-11-15T02:27:28.837Z,44.84
2022-11-15T02:28:29.046Z,44.79
2022-11-15T02:29:29.007Z,44.83
2022-11-15T02:30:29.069Z,44.81
2022-11-15T02:31:29.148Z,44.81
2022-11-15T02:32:29.250Z,44.80
2022-11-15T02:33:29.744Z,44.76
2022-11-15T02:34:29.422Z,44.81
2022-11-15T02:35:29.487Z,44.81
2022-11-15T02:36:29.565Z,44.78
2022-11-15T02:37:29.655Z,44.78
2022-11-15T02:38:29.716Z,44.79
2022-11-15T02:39:29.798Z,44.76
2022-11-15T02:40:35.830Z,44.77
2022-11-15T02:41:29.919Z,44.82
2022-11-15T02:42:30.051Z,44.80
2022-11-15T02:43:30.451Z,44.79
2022-11-15T02:44:30.180Z,44.77
2022-11-15T02:45:30.286Z,44.79
2022-11-15T02:46:30.338Z,44.80
2022-11-15T02:47:30.411Z,44.81
2022-11-15T02:48:30.506Z,44.79
2022-11-15T02:49:30.582Z,44.80
2022-11-15T02:50:30.694Z,44.74
2022-11-15T02:51:30.760Z,44.75
2022-11-15T02:52:30.842Z,44.77
2022-11-15T02:53:31.212Z,44.79
2022-11-15T02:54:31.016Z,44.77
2022-11-15T02:55:31.085Z,44.79
2022-11-15T02:56:31.279Z,44.77
2022-11-15T02:57:31.243Z,44.81
2022-11-15T02:58:31.347Z,44.79
2022-11-15T02:59:31.435Z,44.79
2022-11-15T03:00:31.544Z,44.74
2022-11-15T03:01:31.592Z,44.80
2022-11-15T03:02:31.665Z,44.82
2022-11-15T03:03:32.100Z,44.82
2022-11-15T03:04:31.839Z,44.80
2022-11-15T03:05:31.914Z,44.77
2022-11-15T03:06:32.021Z,44.75
2022-11-15T03:07:32.288Z,44.80
2022-11-15T03:08:32.192Z,44.81
2022-11-15T03:09:32.269Z,44.82
2022-11-15T03:10:32.359Z,44.77
2022-11-15T03:11:38.385Z,44.81
2022-11-15T03:12:32.498Z,44.80
2022-11-15T03:13:32.956Z,44.83
2022-11-15T03:14:32.635Z,44.82
2022-11-15T03:15:32.743Z,44.82
2022-11-15T03:16:32.825Z,44.81
2022-11-15T03:17:32.903Z,44.77
2022-11-15T03:18:33.032Z,44.78
2022-11-15T03:19:33.065Z,44.80
2022-11-15T03:20:33.149Z,44.87
2022-11-15T03:21:33.258Z,44.79
2022-11-15T03:22:33.331Z,44.83
2022-11-15T03:23:33.765Z,44.79
2022-11-15T03:24:33.531Z,44.79
2022-11-15T03:25:33.593Z,44.76
2022-11-15T03:26:33.680Z,44.95
2022-11-15T03:27:33.803Z,44.78
2022-11-15T03:28:33.837Z,44.79
2022-11-15T03:29:33.946Z,44.73
2022-11-15T03:30:34.056Z,44.76
2022-11-15T03:31:34.120Z,44.81
2022-11-15T03:32:34.213Z,44.74
2022-11-15T03:33:34.442Z,44.83
2022-11-15T03:34:34.377Z,44.71
2022-11-15T03:35:34.554Z,44.79
2022-11-15T03:36:34.547Z,44.79
2022-11-15T03:37:34.626Z,44.77
2022-11-15T03:38:34.721Z,44.79
2022-11-15T03:39:34.785Z,44.78
2022-11-15T03:40:34.885Z,44.81
2022-11-15T03:41:34.969Z,44.76
2022-11-15T03:42:41.049Z,44.77
2022-11-15T03:43:35.337Z,44.85
2022-11-15T03:44:35.168Z,44.84
2022-11-15T03:45:35.252Z,44.85
2022-11-15T03:46:35.338Z,44.83
2022-11-15T03:47:35.424Z,44.79
2022-11-15T03:48:35.510Z,44.78
2022-11-15T03:49:35.593Z,44.80
2022-11-15T03:50:35.668Z,44.77
2022-11-15T03:51:35.773Z,44.79
2022-11-15T03:52:35.882Z,44.79
2022-11-15T03:53:35.955Z,44.79
2022-11-15T03:54:36.038Z,44.76
2022-11-15T03:55:36.116Z,44.77
2022-11-15T03:56:36.196Z,44.79
2022-11-15T03:57:36.289Z,44.75
2022-11-15T03:58:36.472Z,44.78
2022-11-15T03:59:36.440Z,44.73
2022-11-15T04:00:36.517Z,44.75
2022-11-15T04:01:36.679Z,44.75
2022-11-15T04:02:36.690Z,44.80
2022-11-15T04:03:36.782Z,44.76
2022-11-15T04:04:36.869Z,44.75
2022-11-15T04:05:36.941Z,44.78
2022-11-15T04:06:37.021Z,44.79
2022-11-15T04:07:37.100Z,44.75
2022-11-15T04:08:37.195Z,44.71
2022-11-15T04:09:37.279Z,44.73
2022-11-15T04:10:37.388Z,44.76
2022-11-15T04:11:37.465Z,44.72
2022-11-15T04:12:37.541Z,44.78
2022-11-15T04:13:43.590Z,44.77
2022-11-15T04:14:37.683Z,44.78
2022-11-15T04:15:37.873Z,44.82
2022-11-15T04:16:43.555Z,44.80
2022-11-15T04:17:38.035Z,44.81
2022-11-15T04:18:38.000Z,44.78
2022-11-15T04:19:38.078Z,44.79
2022-11-15T04:20:38.184Z,44.81
2022-11-15T04:21:38.284Z,44.78
2022-11-15T04:22:38.347Z,44.76
2022-11-15T04:23:38.440Z,44.75
2022-11-15T04:24:38.504Z,44.76
2022-11-15T04:25:38.584Z,44.77
2022-11-15T04:26:38.680Z,44.74
2022-11-15T04:27:38.765Z,44.78
2022-11-15T04:28:38.833Z,44.79
2022-11-15T04:29:38.910Z,44.78
2022-11-15T04:30:39.003Z,44.74
2022-11-15T04:31:39.085Z,44.74
2022-11-15T04:32:39.270Z,44.77
2022-11-15T04:33:39.274Z,44.73
2022-11-15T04:34:39.353Z,44.70
2022-11-15T04:35:39.430Z,44.76
2022-11-15T04:36:39.513Z,44.78
2022-11-15T04:37:39.616Z,44.73
2022-11-15T04:38:39.656Z,44.76
2022-11-15T04:39:39.724Z,44.78
2022-11-15T04:40:39.788Z,44.74
2022-11-15T04:41:39.871Z,44.77
2022-11-15T04:42:39.943Z,44.76
2022-11-15T04:43:40.045Z,44.73
2022-11-15T04:44:46.075Z,44.77
2022-11-15T04:45:40.183Z,44.70
2022-11-15T04:46:40.263Z,44.78
2022-11-15T04:47:40.350Z,44.73
2022-11-15T04:48:40.436Z,44.78
2022-11-15T04:49:40.534Z,44.75
2022-11-15T04:50:40.613Z,44.78
2022-11-15T04:51:40.705Z,44.78
2022-11-15T04:52:40.791Z,44.77
2022-11-15T04:53:40.875Z,44.78
2022-11-15T04:54:40.964Z,44.76
2022-11-15T04:55:41.145Z,44.76
2022-11-15T04:56:41.144Z,44.73
2022-11-15T04:57:41.240Z,44.76
2022-11-15T04:58:41.328Z,44.73
2022-11-15T04:59:41.415Z,44.76
2022-11-15T05:00:41.636Z,44.75
2022-11-15T05:01:44.845Z,44.78
2022-11-15T05:02:41.662Z,44.78
2022-11-15T05:03:41.763Z,44.77
2022-11-15T05:04:41.823Z,44.74
2022-11-15T05:05:41.922Z,44.79
2022-11-15T05:06:41.999Z,44.74
2022-11-15T05:07:42.060Z,44.79
2022-11-15T05:08:42.123Z,44.75
2022-11-15T05:09:42.208Z,44.77
2022-11-15T05:10:42.294Z,44.74
2022-11-15T05:11:42.378Z,44.73
2022-11-15T05:12:42.543Z,44.79
2022-11-15T05:13:42.530Z,44.75
2022-11-15T05:14:43.444Z,44.76
2022-11-15T05:15:50.457Z,44.76
2022-11-15T05:16:42.783Z,44.77
2022-11-15T05:17:42.864Z,44.75
2022-11-15T05:18:43.076Z,44.75
2022-11-15T05:19:43.033Z,44.74
2022-11-15T05:20:43.095Z,44.73
2022-11-15T05:21:43.171Z,44.70
2022-11-15T05:22:43.267Z,44.67
2022-11-15T05:23:43.335Z,44.66
2022-11-15T05:24:43.450Z,44.69
2022-11-15T05:25:43.500Z,44.71
2022-11-15T05:26:43.560Z,44.67
2022-11-15T05:27:43.635Z,44.67
2022-11-15T05:28:43.716Z,44.75
2022-11-15T05:29:43.930Z,44.64
2022-11-15T05:30:43.901Z,44.64
2022-11-15T05:31:43.963Z,44.63
2022-11-15T05:32:44.033Z,44.65
2022-11-15T05:33:44.128Z,44.62
2022-11-15T05:34:44.214Z,44.64
2022-11-15T05:35:44.311Z,44.69
2022-11-15T05:36:44.400Z,44.67
2022-11-15T05:37:44.484Z,44.65
2022-11-15T05:38:44.575Z,44.64
2022-11-15T05:39:44.657Z,44.66
2022-11-15T05:40:44.855Z,44.66
2022-11-15T05:41:44.815Z,44.62
2022-11-15T05:42:44.898Z,44.71
2022-11-15T05:43:44.984Z,44.68
2022-11-15T05:44:45.077Z,44.58
2022-11-15T05:45:45.169Z,44.66
2022-11-15T05:46:51.490Z,44.67
2022-11-15T05:47:45.349Z,44.65
2022-11-15T05:48:45.434Z,44.67
2022-11-15T05:49:45.510Z,44.73
2022-11-15T05:50:45.594Z,44.72
2022-11-15T05:51:45.677Z,44.67
2022-11-15T05:52:45.775Z,44.81
2022-11-15T05:53:45.823Z,44.71
2022-11-15T05:54:45.891Z,44.68
2022-11-15T05:55:45.955Z,44.67
2022-11-15T05:56:46.030Z,44.67
2022-11-15T05:57:46.112Z,44.67
2022-11-15T05:58:46.317Z,44.72
2022-11-15T05:59:46.284Z,44.66
2022-11-15T06:00:46.384Z,44.62
2022-11-15T06:01:46.556Z,44.66
2022-11-15T06:02:46.561Z,44.66
2022-11-15T06:03:46.773Z,44.69
2022-11-15T06:04:46.806Z,44.70
2022-11-15T06:05:46.816Z,44.70
2022-11-15T06:06:46.928Z,44.70
2022-11-15T06:07:46.957Z,44.69
2022-11-15T06:08:47.057Z,44.70
2022-11-15T06:09:47.160Z,44.68
2022-11-15T06:10:47.209Z,44.66
2022-11-15T06:11:47.293Z,44.73
2022-11-15T06:12:47.377Z,44.63
2022-11-15T06:13:47.457Z,44.70
2022-11-15T06:14:47.561Z,44.71
2022-11-15T06:15:47.635Z,44.71
2022-11-15T06:16:47.744Z,44.68
2022-11-15T06:17:53.797Z,44.68
2022-11-15T06:18:47.919Z,44.73
2022-11-15T06:19:48.011Z,44.73
2022-11-15T06:20:48.202Z,44.73
2022-11-15T06:21:48.170Z,44.71
2022-11-15T06:22:48.252Z,44.70
2022-11-15T06:23:48.357Z,44.69
2022-11-15T06:24:48.440Z,44.74
2022-11-15T06:25:48.550Z,44.71
2022-11-15T06:26:48.622Z,44.74
2022-11-15T06:27:48.715Z,44.68
2022-11-15T06:28:48.802Z,44.70
2022-11-15T06:29:48.874Z,44.72
2022-11-15T06:30:52.984Z,44.70
2022-11-15T06:31:49.153Z,44.73
2022-11-15T06:32:49.122Z,44.73
2022-11-15T06:33:49.224Z,44.74
2022-11-15T06:34:49.301Z,44.70
2022-11-15T06:35:49.379Z,44.72
2022-11-15T06:36:49.555Z,44.67
2022-11-15T06:37:49.559Z,44.66
2022-11-15T06:38:49.630Z,44.71
2022-11-15T06:39:49.718Z,44.69
2022-11-15T06:40:49.792Z,44.71
2022-11-15T06:41:49.866Z,44.72
2022-11-15T06:42:49.960Z,44.73
2022-11-15T06:43:50.057Z,44.74
2022-11-15T06:44:50.131Z,44.74
2022-11-15T06:45:50.323Z,44.71
2022-11-15T06:46:50.301Z,44.25
2022-11-15T06:47:50.386Z,43.47
2022-11-15T06:48:56.610Z,43.23
2022-11-15T06:49:50.593Z,44.24
2022-11-15T06:50:50.682Z,44.12
2022-11-15T06:51:50.762Z,44.40
2022-11-15T06:52:50.860Z,44.38
2022-11-15T06:53:50.942Z,44.46
2022-11-15T06:54:51.101Z,44.54
2022-11-15T06:55:55.196Z,44.60
2022-11-15T06:56:51.198Z,44.57
2022-11-15T06:57:51.279Z,44.64
2022-11-15T06:58:51.356Z,44.49
2022-11-15T06:59:51.439Z,44.66
2022-11-15T07:00:51.692Z,44.68
2022-11-15T07:01:51.629Z,44.57
2022-11-15T07:02:51.706Z,44.64
2022-11-15T07:03:51.815Z,44.69
2022-11-15T07:04:51.892Z,44.67
2022-11-15T07:05:51.998Z,44.72
2022-11-15T07:06:52.155Z,44.66
2022-11-15T07:07:52.170Z,44.58
2022-11-15T07:08:52.262Z,44.61
2022-11-15T07:09:52.358Z,44.73
2022-11-15T07:10:52.408Z,43.47
2022-11-15T07:11:52.595Z,43.57
2022-11-15T07:12:52.577Z,42.65
2022-11-15T07:13:52.639Z,40.40
2022-11-15T07:14:52.720Z,40.62
2022-11-15T07:15:53.414Z,41.50
2022-11-15T07:16:52.871Z,42.36
2022-11-15T07:17:52.967Z,42.74
2022-11-15T07:18:53.049Z,42.40
2022-11-15T07:19:59.125Z,43.07
2022-11-15T07:20:53.223Z,44.36
2022-11-15T07:21:53.313Z,43.93
2022-11-15T07:22:53.394Z,43.63
2022-11-15T07:23:53.584Z,43.55
2022-11-15T07:24:53.554Z,42.92
2022-11-15T07:25:53.619Z,42.86
2022-11-15T07:26:53.685Z,43.20
2022-11-15T07:27:53.759Z,42.97
2022-11-15T07:28:53.844Z,43.16
2022-11-15T07:29:53.923Z,43.79
2022-11-15T07:30:53.983Z,43.90
2022-11-15T07:31:54.061Z,43.57
2022-11-15T07:32:54.169Z,42.97
2022-11-15T07:33:54.256Z,43.93
2022-11-15T07:34:54.346Z,43.80
2022-11-15T07:35:54.541Z,43.59
2022-11-15T07:36:54.487Z,44.26
2022-11-15T07:37:54.590Z,44.43
2022-11-15T07:38:54.674Z,44.27
2022-11-15T07:39:54.760Z,43.58
2022-11-15T07:40:54.859Z,43.57
2022-11-15T07:41:55.035Z,42.46
2022-11-15T07:42:55.045Z,41.85
2022-11-15T07:43:55.100Z,42.35
2022-11-15T07:44:55.189Z,42.18
2022-11-15T07:45:59.022Z,41.88
2022-11-15T07:46:55.370Z,41.27
2022-11-15T07:47:55.471Z,41.42
2022-11-15T07:48:55.551Z,41.13
2022-11-15T07:49:55.646Z,41.05
2022-11-15T07:51:01.708Z,40.97
2022-11-15T07:51:55.787Z,41.32
2022-11-15T07:52:55.884Z,41.09
2022-11-15T07:53:56.069Z,41.07
2022-11-15T07:54:56.016Z,41.11
2022-11-15T07:55:56.096Z,41.21
2022-11-15T07:56:56.180Z,41.12
2022-11-15T07:57:56.254Z,41.14
2022-11-15T07:58:56.326Z,41.16
2022-11-15T07:59:56.518Z,41.10
2022-11-15T08:00:56.735Z,41.10
2022-11-15T08:01:56.786Z,41.10
2022-11-15T08:02:56.813Z,41.22
2022-11-15T08:03:56.759Z,41.29
2022-11-15T08:04:56.873Z,41.26
2022-11-15T08:05:57.061Z,41.23
2022-11-15T08:06:57.063Z,41.19
2022-11-15T08:07:57.067Z,41.28
2022-11-15T08:08:57.163Z,41.54
2022-11-15T08:09:57.237Z,41.49
2022-11-15T08:10:57.316Z,41.37
2022-11-15T08:11:57.539Z,41.39
2022-11-15T08:12:57.528Z,41.60
2022-11-15T08:13:57.578Z,41.61
2022-11-15T08:14:57.650Z,41.48
2022-11-15T08:15:57.997Z,41.48
2022-11-15T08:16:57.840Z,41.72
2022-11-15T08:17:57.906Z,41.30
2022-11-15T08:18:57.993Z,41.46
2022-11-15T08:19:58.062Z,41.44
2022-11-15T08:20:58.134Z,41.24
2022-11-15T08:22:04.199Z,41.30
2022-11-15T08:22:58.298Z,41.21
2022-11-15T08:23:58.449Z,41.43
2022-11-15T08:24:58.440Z,41.52
2022-11-15T08:25:58.504Z,41.61
2022-11-15T08:26:58.594Z,41.32
2022-11-15T08:27:58.663Z,41.32
2022-11-15T08:28:58.753Z,41.37
2022-11-15T08:29:59.672Z,41.29
2022-11-15T08:30:58.926Z,41.49
2022-11-15T08:31:59.013Z,41.53
2022-11-15T08:32:59.071Z,41.55
2022-11-15T08:33:59.146Z,41.51
2022-11-15T08:34:59.236Z,41.43
2022-11-15T08:35:59.461Z,41.47
2022-11-15T08:36:59.429Z,41.58
2022-11-15T08:37:59.501Z,42.54
2022-11-15T08:38:59.588Z,41.45
2022-11-15T08:39:59.681Z,41.43
2022-11-15T08:40:59.868Z,42.44
2022-11-15T08:41:59.869Z,41.62
2022-11-15T08:42:59.955Z,41.62
2022-11-15T08:44:00.038Z,41.69
2022-11-15T08:45:00.111Z,41.60
2022-11-15T08:46:00.195Z,41.72
2022-11-15T08:47:00.400Z,41.73
2022-11-15T08:48:00.411Z,41.75
2022-11-15T08:49:00.480Z,41.86
2022-11-15T08:50:00.572Z,41.89
2022-11-15T08:51:00.721Z,41.95
2022-11-15T08:52:00.816Z,41.86
2022-11-15T08:53:06.824Z,41.70
2022-11-15T08:54:00.922Z,41.84
2022-11-15T08:55:01.017Z,41.96
2022-11-15T08:56:01.088Z,41.85
2022-11-15T08:57:01.207Z,41.78
2022-11-15T08:58:01.281Z,41.85
2022-11-15T08:59:01.370Z,41.86
2022-11-15T09:00:01.465Z,41.75
2022-11-15T09:01:01.633Z,41.77
2022-11-15T09:02:01.647Z,41.82
2022-11-15T09:03:01.823Z,41.78
2022-11-15T09:04:01.789Z,41.80
2022-11-15T09:05:01.870Z,41.97
2022-11-15T09:06:01.952Z,41.92
2022-11-15T09:07:02.081Z,42.00
2022-11-15T09:08:09.969Z,42.01
2022-11-15T09:09:02.283Z,42.01
2022-11-15T09:10:02.251Z,41.90
2022-11-15T09:11:02.337Z,41.77
2022-11-15T09:12:02.979Z,41.95
2022-11-15T09:13:02.519Z,42.05
2022-11-15T09:14:02.617Z,42.15
2022-11-15T09:15:02.680Z,41.99
2022-11-15T09:16:02.734Z,42.01
2022-11-15T09:17:02.828Z,41.92
2022-11-15T09:18:02.905Z,41.89
2022-11-15T09:19:06.413Z,41.83
2022-11-15T09:20:03.192Z,41.91
2022-11-15T09:21:03.165Z,41.82
2022-11-15T09:22:03.256Z,42.05
2022-11-15T09:23:03.343Z,41.76
2022-11-15T09:24:09.399Z,41.67
2022-11-15T09:25:06.266Z,41.72
2022-11-15T09:26:03.667Z,41.83
2022-11-15T09:27:03.708Z,41.84
2022-11-15T09:28:03.791Z,41.79
2022-11-15T09:29:03.872Z,41.80
2022-11-15T09:30:03.962Z,41.81
2022-11-15T09:31:04.142Z,41.45
2022-11-15T09:32:04.116Z,41.42
2022-11-15T09:33:04.253Z,41.59
2022-11-15T09:34:04.261Z,41.66
2022-11-15T09:35:04.341Z,41.34
2022-11-15T09:36:04.424Z,41.27
2022-11-15T09:37:04.536Z,41.40
2022-11-15T09:38:04.618Z,41.51
2022-11-15T09:39:04.713Z,41.62
2022-11-15T09:40:04.761Z,41.45
2022-11-15T09:41:04.840Z,41.62
2022-11-15T09:42:04.927Z,41.65
2022-11-15T09:43:05.049Z,41.54
2022-11-15T09:44:05.119Z,41.40
2022-11-15T09:45:05.222Z,41.45
2022-11-15T09:46:05.312Z,41.47
2022-11-15T09:47:05.404Z,41.42
2022-11-15T09:48:05.643Z,41.48
2022-11-15T09:49:05.559Z,41.50
2022-11-15T09:50:05.637Z,41.31
2022-11-15T09:51:05.708Z,41.50
2022-11-15T09:52:05.791Z,41.35
2022-11-15T09:53:05.879Z,41.44
2022-11-15T09:55:12.034Z,41.25
2022-11-15T09:56:06.110Z,41.44
2022-11-15T09:57:06.180Z,41.47
2022-11-15T09:58:06.274Z,41.50
2022-11-15T09:59:06.358Z,41.44
2022-11-15T10:01:06.583Z,41.22
2022-11-15T10:02:06.628Z,41.11
2022-11-15T10:03:06.709Z,41.25
2022-11-15T10:04:10.780Z,41.26
2022-11-15T10:05:06.878Z,41.27
2022-11-15T10:06:07.073Z,41.14
2022-11-15T10:07:07.104Z,41.30
2022-11-15T10:08:07.137Z,41.29
2022-11-15T10:09:07.228Z,41.36
2022-11-15T10:10:07.316Z,41.47
2022-11-15T10:11:36.125Z,41.22
2022-11-15T10:12:07.593Z,41.09
2022-11-15T10:13:07.569Z,41.23
2022-11-15T10:14:07.653Z,41.41
2022-11-15T10:15:07.759Z,41.57
2022-11-15T10:16:07.831Z,41.39
2022-11-15T10:17:07.909Z,41.16
2022-11-15T10:18:08.090Z,41.31
2022-11-15T10:19:08.071Z,41.54
2022-11-15T10:20:08.166Z,41.18
2022-11-15T10:21:08.247Z,41.24
2022-11-15T10:22:08.342Z,41.49
2022-11-15T10:23:08.448Z,41.40
2022-11-15T10:24:08.653Z,41.35
2022-11-15T10:25:08.624Z,41.55
2022-11-15T10:26:14.730Z,41.31
2022-11-15T10:27:08.778Z,41.48
2022-11-15T10:28:08.879Z,41.46
2022-11-15T10:29:08.963Z,41.40
2022-11-15T10:30:09.080Z,41.47
2022-11-15T10:31:13.072Z,41.47
2022-11-15T10:32:09.218Z,41.61
2022-11-15T10:33:09.263Z,41.48
2022-11-15T10:34:09.341Z,41.58
2022-11-15T10:35:09.445Z,41.67
2022-11-15T10:36:09.532Z,41.62
2022-11-15T10:37:09.595Z,41.55
2022-11-15T10:38:09.711Z,41.70
2022-11-15T10:39:09.765Z,41.64
2022-11-15T10:40:09.854Z,41.47
2022-11-15T10:41:09.951Z,41.60
2022-11-15T10:42:13.997Z,41.67
2022-11-15T10:43:10.145Z,41.64
2022-11-15T10:44:10.203Z,41.63
2022-11-15T10:45:10.298Z,41.67
2022-11-15T10:46:39.418Z,41.67
2022-11-15T10:47:10.502Z,41.71
2022-11-15T10:48:10.565Z,41.69
2022-11-15T10:49:10.644Z,41.60
2022-11-15T10:50:10.727Z,41.59
2022-11-15T10:51:10.792Z,41.68
2022-11-15T10:52:10.879Z,41.72
2022-11-15T10:53:11.052Z,41.55
2022-11-15T10:54:13.777Z,41.84
2022-11-15T10:55:11.118Z,41.76
2022-11-15T10:56:11.181Z,41.58
2022-11-15T10:57:17.239Z,41.65
2022-11-15T10:58:11.389Z,41.75
2022-11-15T10:59:11.551Z,41.76
2022-11-15T11:00:11.498Z,41.65
2022-11-15T11:01:11.671Z,41.77
2022-11-15T11:02:11.672Z,41.82
2022-11-15T11:03:11.758Z,41.77
2022-11-15T11:04:11.923Z,41.71
2022-11-15T11:05:11.949Z,41.82
2022-11-15T11:06:12.034Z,41.77
2022-11-15T11:07:12.198Z,41.67
2022-11-15T11:08:12.209Z,41.69
2022-11-15T11:09:12.261Z,41.67
2022-11-15T11:10:29.287Z,41.89
2022-11-15T11:11:12.534Z,42.01
2022-11-15T11:12:12.503Z,41.94
2022-11-15T11:13:12.564Z,41.98
2022-11-15T11:14:12.654Z,42.03
2022-11-15T11:15:12.729Z,42.26
2022-11-15T11:16:12.820Z,42.21
2022-11-15T11:17:12.928Z,42.33
2022-11-15T11:18:13.007Z,42.11
2022-11-15T11:19:13.085Z,41.97
2022-11-15T11:20:13.159Z,42.13
2022-11-15T11:21:13.220Z,42.18
2022-11-15T11:22:13.302Z,42.30
2022-11-15T11:23:13.532Z,42.18
2022-11-15T11:24:13.496Z,42.33
2022-11-15T11:25:13.578Z,42.27
2022-11-15T11:26:13.668Z,42.04
2022-11-15T11:27:13.741Z,42.12
2022-11-15T11:28:21.076Z,42.06
2022-11-15T11:29:13.920Z,42.17
2022-11-15T11:30:13.998Z,42.36
2022-11-15T11:31:14.083Z,42.45
2022-11-15T11:32:14.157Z,42.33
2022-11-15T11:33:14.242Z,42.43
2022-11-15T11:34:14.317Z,42.30
2022-11-15T11:35:14.379Z,42.11
2022-11-15T11:36:14.457Z,42.29
2022-11-15T11:37:14.553Z,42.18
2022-11-15T11:38:16.360Z,42.50
2022-11-15T11:39:14.712Z,42.26
2022-11-15T11:40:14.784Z,42.29
2022-11-15T11:41:14.870Z,42.36
2022-11-15T11:42:14.963Z,42.51
2022-11-15T11:43:15.047Z,42.38
2022-11-15T11:44:15.143Z,42.39
2022-11-15T11:45:15.342Z,42.35
2022-11-15T11:46:15.297Z,42.48
2022-11-15T11:47:15.383Z,41.41
2022-11-15T11:48:15.480Z,41.32
2022-11-15T11:49:15.564Z,41.23
2022-11-15T11:50:15.886Z,41.65
2022-11-15T11:51:15.733Z,41.14
2022-11-15T11:52:15.810Z,40.88
2022-11-15T11:53:15.899Z,40.70
2022-11-15T11:54:15.970Z,41.10
2022-11-15T11:55:16.049Z,41.29
2022-11-15T11:56:16.231Z,41.44
2022-11-15T11:57:16.197Z,40.66
2022-11-15T11:58:16.285Z,40.77
2022-11-15T11:59:22.346Z,40.75
2022-11-15T12:00:16.458Z,40.70
2022-11-15T12:01:16.664Z,40.69
2022-11-15T12:02:16.748Z,40.52
2022-11-15T12:03:16.736Z,40.62
2022-11-15T12:04:16.796Z,40.48
2022-11-15T12:05:16.856Z,40.60
2022-11-15T12:06:16.921Z,40.58
2022-11-15T12:07:17.174Z,40.61
2022-11-15T12:08:17.094Z,41.06
2022-11-15T12:09:17.181Z,40.57
2022-11-15T12:10:17.267Z,40.96
2022-11-15T12:11:17.359Z,40.83
2022-11-15T12:12:17.455Z,40.46
2022-11-15T12:13:17.591Z,40.62
2022-11-15T12:14:17.575Z,40.71
2022-11-15T12:15:17.681Z,40.88
2022-11-15T12:16:17.773Z,40.45
2022-11-15T12:17:17.857Z,40.41
2022-11-15T12:18:17.947Z,40.57
2022-11-15T12:19:18.126Z,40.42
2022-11-15T12:20:18.708Z,40.20
2022-11-15T12:21:18.156Z,40.27
2022-11-15T12:22:18.248Z,40.43
2022-11-15T12:23:18.349Z,40.47
2022-11-15T12:24:18.440Z,40.89
2022-11-15T12:25:18.559Z,40.33
2022-11-15T12:26:18.611Z,40.25
2022-11-15T12:27:23.398Z,40.47
2022-11-15T12:28:18.798Z,40.66
2022-11-15T12:29:18.916Z,40.49
2022-11-15T12:30:25.309Z,40.35
2022-11-15T12:31:19.075Z,40.41
2022-11-15T12:32:19.161Z,40.36
2022-11-15T12:33:19.250Z,40.56
2022-11-15T12:34:19.357Z,40.66
2022-11-15T12:35:19.408Z,40.52
2022-11-15T12:36:19.554Z,40.58
2022-11-15T12:37:19.559Z,40.85
2022-11-15T12:38:19.647Z,40.53
2022-11-15T12:39:19.777Z,40.50
2022-11-15T12:40:19.821Z,40.45
2022-11-15T12:41:20.034Z,40.16
2022-11-15T12:42:20.029Z,40.29
2022-11-15T12:43:20.077Z,40.24
2022-11-15T12:44:20.172Z,40.46
2022-11-15T12:45:20.256Z,40.21
2022-11-15T12:46:20.357Z,40.53
2022-11-15T12:47:23.198Z,40.16
2022-11-15T12:48:20.545Z,40.04
2022-11-15T12:49:20.606Z,40.08
2022-11-15T12:50:20.690Z,40.09
2022-11-15T12:51:20.780Z,40.12
2022-11-15T12:52:20.888Z,40.11
2022-11-15T12:53:20.932Z,40.08
2022-11-15T12:54:21.147Z,40.15
2022-11-15T12:55:21.117Z,40.15